»·PEaware :: N80991 KUDD-KRNM

N80991 :: KUDD-KRNM

FLIGHT INFORMATION

Flight Status: Arrived
Operator: Privately registered:
United States
More flights under this callsign
Pilot: Keenan Y. (13533)
Aircraft: CESSNA 172 SKYHAWK
(C172)
More flights by this aircraft type
Origin: KUDD Bermuda Dunes
United States
Destination: KRNM Ramona
United States
More flights between these airports :: More routes between these airports
Route: TRM V137 HENOM V460 JLI
File this flight plan on PilotEdge
Remarks:
Altitude:
(Current/Filed)
6,500ft
Speed:
(Current/Filed)
100kts
Departed: 29-Jul-18 01:18 PM
Arrived: 29-Jul-18 02:06 PM
Distance/Time
Traveled:
53nm/0:48
Distance/Time
To Go:
Arrived

Flight Plot

Page will automatically refresh every two minutes.

Flight plan parsing failed; only flown route is shown


Map Options




Map Legend


Flown Route
Filed Route
Departure Airport
Arrival Airport
Navaid (VOR, NDB)
Fix

Horizontal Profiles

Position Reports

Time Latitude Longitude Heading Altitude Ground
Speed
29-Jul-18 13:15 33.750121 -116.280397 295 63ft 22kts
29-Jul-18 13:16 33.751054 -116.282507 89 63ft 0kts
29-Jul-18 13:17 33.751054 -116.282507 89 63ft 0kts
29-Jul-18 13:18 33.751188 -116.281691 114 63ft 0kts
29-Jul-18 13:19 33.746884 -116.271114 113 356ft 72kts
29-Jul-18 13:20 33.733553 -116.253625 149 1203ft 75kts
29-Jul-18 13:21 33.716160 -116.241929 154 2085ft 71kts
29-Jul-18 13:22 33.699748 -116.230650 143 2897ft 68kts
29-Jul-18 13:23 33.684276 -116.216306 132 3621ft 72kts
29-Jul-18 13:24 33.669367 -116.199832 141 4283ft 76kts
29-Jul-18 13:25 33.652034 -116.185553 145 4890ft 76kts
29-Jul-18 13:26 33.632587 -116.174395 149 5504ft 78kts
29-Jul-18 13:27 33.614965 -116.161417 145 6212ft 73kts
29-Jul-18 13:28 33.595602 -116.147470 140 6498ft 96kts
29-Jul-18 13:29 33.578840 -116.123199 126 6492ft 88kts
29-Jul-18 13:30 33.561407 -116.101796 140 6488ft 94kts
29-Jul-18 13:31 33.540350 -116.082244 139 6461ft 94kts
29-Jul-18 13:32 33.520010 -116.061991 128 6417ft 95kts
29-Jul-18 13:33 33.499818 -116.041428 139 6402ft 95kts
29-Jul-18 13:34 33.476419 -116.026545 175 6502ft 97kts
29-Jul-18 13:35 33.454642 -116.049781 221 6470ft 112kts
29-Jul-18 13:36 33.432690 -116.074874 210 6442ft 109kts
29-Jul-18 13:37 33.409180 -116.097608 208 6412ft 108kts
29-Jul-18 13:38 33.386186 -116.121070 217 6369ft 110kts
29-Jul-18 13:39 33.365409 -116.147043 232 6429ft 113kts
29-Jul-18 13:40 33.350877 -116.180135 235 6454ft 113kts
29-Jul-18 13:41 33.335730 -116.213152 233 6503ft 112kts
29-Jul-18 13:42 33.321884 -116.247154 244 6523ft 113kts
29-Jul-18 13:43 33.312668 -116.284245 248 6424ft 120kts
29-Jul-18 13:44 33.304008 -116.321393 240 6464ft 116kts
29-Jul-18 13:45 33.289811 -116.351911 238 6544ft 112kts
29-Jul-18 13:46 33.271959 -116.373677 217 6488ft 110kts
29-Jul-18 13:47 33.250739 -116.398753 223 6505ft 105kts
29-Jul-18 13:48 33.230611 -116.431612 232 6540ft 104kts
29-Jul-18 13:49 33.218039 -116.456293 236 6565ft 103kts
29-Jul-18 13:50 33.203920 -116.486040 233 6576ft 103kts
29-Jul-18 13:51 33.189718 -116.514076 240 6954ft 97kts
29-Jul-18 13:52 33.173173 -116.546918 232 7305ft 100kts
29-Jul-18 13:53 33.158616 -116.568550 226 7453ft 99kts
29-Jul-18 13:54 33.141526 -116.593677 228 7504ft 101kts
29-Jul-18 13:55 33.126587 -116.621978 238 7432ft 98kts
29-Jul-18 13:56 33.114898 -116.649888 246 6568ft 92kts
29-Jul-18 13:57 33.105518 -116.675574 242 6076ft 90kts
29-Jul-18 13:58 33.094030 -116.699450 243 6514ft 87kts
29-Jul-18 13:59 33.080877 -116.726512 231 6494ft 97kts
29-Jul-18 14:00 33.065517 -116.750837 231 5877ft 87kts
29-Jul-18 14:01 33.050971 -116.771077 236 5057ft 76kts
29-Jul-18 14:02 33.042987 -116.794378 250 4210ft 94kts
29-Jul-18 14:03 33.033777 -116.824790 257 3678ft 90kts
29-Jul-18 14:04 33.030753 -116.854478 272 3009ft 91kts
29-Jul-18 14:05 33.034194 -116.881654 280 2194ft 66kts
29-Jul-18 14:06 33.037397 -116.903494 282 1495ft 65kts
29-Jul-18 14:07 33.039219 -116.912430 5 1392ft 0kts
29-Jul-18 14:08 33.040087 -116.913834 326 1392ft 11kts
29-Jul-18 14:09 33.040669 -116.914294 275 1392ft 0kts
29-Jul-18 14:10 33.040669 -116.914294 275 1392ft 0kts
29-Jul-18 14:11 33.040669 -116.914294 275 1392ft 0kts

Navigation Log

Ident Type
Flight plan parsing failed, navigation log unavailable